sensor_id;sensor_type;location;lat;lon;timestamp;P1;durP1;ratioP1;P2;durP2;ratioP2
13014;SDS011;6573;57.696;11.950;2023-07-22T00:00:14;1.90;;;1.43;;
13014;SDS011;6573;57.696;11.950;2023-07-22T00:02:46;5.30;;;1.50;;
13014;SDS011;6573;57.696;11.950;2023-07-22T00:05:17;6.30;;;1.50;;
13014;SDS011;6573;57.696;11.950;2023-07-22T00:07:49;5.40;;;1.70;;
13014;SDS011;6573;57.696;11.950;2023-07-22T00:10:18;3.20;;;1.40;;
13014;SDS011;6573;57.696;11.950;2023-07-22T00:12:47;2.37;;;1.33;;
13014;SDS011;6573;57.696;11.950;2023-07-22T00:15:17;2.80;;;1.60;;
13014;SDS011;6573;57.696;11.950;2023-07-22T00:17:47;3.50;;;1.90;;
13014;SDS011;6573;57.696;11.950;2023-07-22T00:20:18;3.83;;;1.60;;
13014;SDS011;6573;57.696;11.950;2023-07-22T00:22:50;2.80;;;1.50;;
13014;SDS011;6573;57.696;11.950;2023-07-22T00:25:18;5.93;;;1.70;;
13014;SDS011;6573;57.696;11.950;2023-07-22T00:27:49;4.70;;;1.80;;
13014;SDS011;6573;57.696;11.950;2023-07-22T00:30:20;2.43;;;1.47;;
13014;SDS011;6573;57.696;11.950;2023-07-22T00:32:52;4.37;;;1.80;;
13014;SDS011;6573;57.696;11.950;2023-07-22T00:35:21;3.90;;;1.20;;
13014;SDS011;6573;57.696;11.950;2023-07-22T00:37:49;4.97;;;1.47;;
13014;SDS011;6573;57.696;11.950;2023-07-22T00:40:17;3.37;;;1.40;;
13014;SDS011;6573;57.696;11.950;2023-07-22T00:42:46;6.27;;;1.30;;
13014;SDS011;6573;57.696;11.950;2023-07-22T00:45:14;3.20;;;1.17;;
13014;SDS011;6573;57.696;11.950;2023-07-22T00:47:44;1.87;;;1.10;;
13014;SDS011;6573;57.696;11.950;2023-07-22T00:50:14;4.87;;;1.50;;
13014;SDS011;6573;57.696;11.950;2023-07-22T00:52:44;2.03;;;1.23;;
13014;SDS011;6573;57.696;11.950;2023-07-22T00:55:13;3.63;;;1.47;;
13014;SDS011;6573;57.696;11.950;2023-07-22T00:57:44;2.33;;;1.40;;
13014;SDS011;6573;57.696;11.950;2023-07-22T01:00:14;5.13;;;1.73;;
13014;SDS011;6573;57.696;11.950;2023-07-22T01:02:44;2.43;;;1.30;;
13014;SDS011;6573;57.696;11.950;2023-07-22T01:05:13;4.93;;;1.97;;
13014;SDS011;6573;57.696;11.950;2023-07-22T01:07:42;3.33;;;1.50;;
13014;SDS011;6573;57.696;11.950;2023-07-22T01:10:15;5.57;;;1.73;;
13014;SDS011;6573;57.696;11.950;2023-07-22T01:12:44;5.73;;;1.63;;
13014;SDS011;6573;57.696;11.950;2023-07-22T01:15:15;3.03;;;1.40;;
13014;SDS011;6573;57.696;11.950;2023-07-22T01:17:46;2.10;;;1.20;;
13014;SDS011;6573;57.696;11.950;2023-07-22T01:20:15;3.40;;;1.40;;
13014;SDS011;6573;57.696;11.950;2023-07-22T01:22:51;2.47;;;1.20;;
13014;SDS011;6573;57.696;11.950;2023-07-22T01:25:22;2.83;;;1.50;;
13014;SDS011;6573;57.696;11.950;2023-07-22T01:27:56;2.60;;;1.47;;
13014;SDS011;6573;57.696;11.950;2023-07-22T01:30:25;3.97;;;1.17;;
13014;SDS011;6573;57.696;11.950;2023-07-22T01:32:54;3.60;;;1.30;;
13014;SDS011;6573;57.696;11.950;2023-07-22T01:35:22;2.63;;;1.17;;
13014;SDS011;6573;57.696;11.950;2023-07-22T01:37:56;3.13;;;1.20;;
13014;SDS011;6573;57.696;11.950;2023-07-22T01:40:27;5.27;;;1.20;;
13014;SDS011;6573;57.696;11.950;2023-07-22T01:42:55;5.10;;;1.40;;
13014;SDS011;6573;57.696;11.950;2023-07-22T01:45:26;3.57;;;1.60;;
13014;SDS011;6573;57.696;11.950;2023-07-22T01:47:57;2.87;;;1.30;;
13014;SDS011;6573;57.696;11.950;2023-07-22T01:50:26;4.57;;;1.73;;
13014;SDS011;6573;57.696;11.950;2023-07-22T01:52:56;2.17;;;1.20;;
13014;SDS011;6573;57.696;11.950;2023-07-22T01:55:28;2.10;;;1.00;;
13014;SDS011;6573;57.696;11.950;2023-07-22T01:57:56;2.97;;;1.30;;
13014;SDS011;6573;57.696;11.950;2023-07-22T02:00:24;3.30;;;1.47;;
13014;SDS011;6573;57.696;11.950;2023-07-22T02:02:56;3.67;;;1.30;;
13014;SDS011;6573;57.696;11.950;2023-07-22T02:05:25;4.97;;;1.33;;
13014;SDS011;6573;57.696;11.950;2023-07-22T02:07:58;3.43;;;1.70;;
13014;SDS011;6573;57.696;11.950;2023-07-22T02:10:27;6.57;;;1.20;;
13014;SDS011;6573;57.696;11.950;2023-07-22T02:12:55;3.17;;;1.20;;
13014;SDS011;6573;57.696;11.950;2023-07-22T02:15:25;6.23;;;3.40;;
13014;SDS011;6573;57.696;11.950;2023-07-22T02:17:57;3.13;;;1.13;;
13014;SDS011;6573;57.696;11.950;2023-07-22T02:20:25;2.70;;;1.13;;
13014;SDS011;6573;57.696;11.950;2023-07-22T02:22:55;2.23;;;0.80;;
13014;SDS011;6573;57.696;11.950;2023-07-22T02:25:27;1.80;;;0.90;;
13014;SDS011;6573;57.696;11.950;2023-07-22T02:27:55;4.07;;;1.17;;
13014;SDS011;6573;57.696;11.950;2023-07-22T02:30:24;3.37;;;0.90;;
13014;SDS011;6573;57.696;11.950;2023-07-22T02:32:55;2.00;;;0.90;;
13014;SDS011;6573;57.696;11.950;2023-07-22T02:35:26;3.30;;;0.80;;
13014;SDS011;6573;57.696;11.950;2023-07-22T02:37:59;4.17;;;1.33;;
13014;SDS011;6573;57.696;11.950;2023-07-22T02:40:29;1.67;;;0.70;;
13014;SDS011;6573;57.696;11.950;2023-07-22T02:42:57;2.13;;;0.60;;
13014;SDS011;6573;57.696;11.950;2023-07-22T02:45:30;3.17;;;0.80;;
13014;SDS011;6573;57.696;11.950;2023-07-22T02:47:59;3.50;;;0.70;;
13014;SDS011;6573;57.696;11.950;2023-07-22T02:50:27;3.60;;;0.63;;
13014;SDS011;6573;57.696;11.950;2023-07-22T02:53:03;1.40;;;0.70;;
13014;SDS011;6573;57.696;11.950;2023-07-22T02:55:32;3.23;;;0.73;;
13014;SDS011;6573;57.696;11.950;2023-07-22T02:58:06;3.47;;;0.60;;
13014;SDS011;6573;57.696;11.950;2023-07-22T03:00:34;2.03;;;0.63;;
13014;SDS011;6573;57.696;11.950;2023-07-22T03:03:04;3.90;;;0.87;;
13014;SDS011;6573;57.696;11.950;2023-07-22T03:05:34;1.90;;;0.70;;
13014;SDS011;6573;57.696;11.950;2023-07-22T03:08:04;1.90;;;0.63;;
13014;SDS011;6573;57.696;11.950;2023-07-22T03:10:33;2.40;;;0.60;;
13014;SDS011;6573;57.696;11.950;2023-07-22T03:13:02;2.30;;;0.90;;
13014;SDS011;6573;57.696;11.950;2023-07-22T03:15:30;2.47;;;0.60;;
13014;SDS011;6573;57.696;11.950;2023-07-22T03:17:59;1.37;;;0.70;;
13014;SDS011;6573;57.696;11.950;2023-07-22T03:20:28;0.97;;;0.60;;
13014;SDS011;6573;57.696;11.950;2023-07-22T03:22:58;4.23;;;0.77;;
13014;SDS011;6573;57.696;11.950;2023-07-22T03:25:35;1.87;;;0.60;;
13014;SDS011;6573;57.696;11.950;2023-07-22T03:28:04;1.53;;;0.60;;
13014;SDS011;6573;57.696;11.950;2023-07-22T03:30:34;3.57;;;0.73;;
13014;SDS011;6573;57.696;11.950;2023-07-22T03:33:02;2.67;;;0.97;;
13014;SDS011;6573;57.696;11.950;2023-07-22T03:35:32;2.40;;;0.80;;
13014;SDS011;6573;57.696;11.950;2023-07-22T03:38:05;3.20;;;1.03;;
13014;SDS011;6573;57.696;11.950;2023-07-22T03:40:36;3.50;;;1.00;;
13014;SDS011;6573;57.696;11.950;2023-07-22T03:43:04;4.67;;;1.03;;
13014;SDS011;6573;57.696;11.950;2023-07-22T03:45:33;5.47;;;0.87;;
13014;SDS011;6573;57.696;11.950;2023-07-22T03:48:02;2.10;;;0.90;;
13014;SDS011;6573;57.696;11.950;2023-07-22T03:50:31;3.87;;;0.90;;
13014;SDS011;6573;57.696;11.950;2023-07-22T03:53:02;1.77;;;0.70;;
13014;SDS011;6573;57.696;11.950;2023-07-22T03:55:32;3.93;;;0.70;;
13014;SDS011;6573;57.696;11.950;2023-07-22T03:58:06;3.47;;;0.80;;
13014;SDS011;6573;57.696;11.950;2023-07-22T04:00:37;4.23;;;0.80;;
13014;SDS011;6573;57.696;11.950;2023-07-22T04:03:06;3.27;;;0.90;;
13014;SDS011;6573;57.696;11.950;2023-07-22T04:05:34;5.27;;;1.17;;
13014;SDS011;6573;57.696;11.950;2023-07-22T04:08:06;2.10;;;0.80;;
13014;SDS011;6573;57.696;11.950;2023-07-22T04:10:34;4.37;;;1.00;;
13014;SDS011;6573;57.696;11.950;2023-07-22T04:13:05;2.60;;;0.70;;
13014;SDS011;6573;57.696;11.950;2023-07-22T04:15:37;2.80;;;0.80;;
13014;SDS011;6573;57.696;11.950;2023-07-22T04:18:06;3.07;;;0.90;;
13014;SDS011;6573;57.696;11.950;2023-07-22T04:20:34;3.53;;;1.20;;
13014;SDS011;6573;57.696;11.950;2023-07-22T04:23:04;4.77;;;1.60;;
13014;SDS011;6573;57.696;11.950;2023-07-22T04:25:38;2.90;;;0.80;;
13014;SDS011;6573;57.696;11.950;2023-07-22T04:28:08;4.97;;;1.00;;
13014;SDS011;6573;57.696;11.950;2023-07-22T04:30:38;1.87;;;0.90;;
13014;SDS011;6573;57.696;11.950;2023-07-22T04:33:07;4.97;;;0.80;;
13014;SDS011;6573;57.696;11.950;2023-07-22T04:35:37;3.30;;;0.90;;
13014;SDS011;6573;57.696;11.950;2023-07-22T04:38:06;1.77;;;1.00;;
13014;SDS011;6573;57.696;11.950;2023-07-22T04:40:35;2.00;;;0.70;;
13014;SDS011;6573;57.696;11.950;2023-07-22T04:43:04;3.40;;;0.90;;
13014;SDS011;6573;57.696;11.950;2023-07-22T04:45:34;3.23;;;0.90;;
13014;SDS011;6573;57.696;11.950;2023-07-22T04:48:06;1.97;;;0.90;;
13014;SDS011;6573;57.696;11.950;2023-07-22T04:50:34;3.23;;;0.80;;
13014;SDS011;6573;57.696;11.950;2023-07-22T04:53:07;2.57;;;0.93;;
13014;SDS011;6573;57.696;11.950;2023-07-22T04:55:35;1.27;;;0.73;;
13014;SDS011;6573;57.696;11.950;2023-07-22T04:58:09;5.27;;;1.20;;
13014;SDS011;6573;57.696;11.950;2023-07-22T05:00:39;4.90;;;1.30;;
13014;SDS011;6573;57.696;11.950;2023-07-22T05:03:08;2.87;;;0.90;;
13014;SDS011;6573;57.696;11.950;2023-07-22T05:05:37;2.17;;;0.87;;
13014;SDS011;6573;57.696;11.950;2023-07-22T05:08:05;2.50;;;0.80;;
13014;SDS011;6573;57.696;11.950;2023-07-22T05:10:36;6.20;;;0.90;;
13014;SDS011;6573;57.696;11.950;2023-07-22T05:13:05;3.70;;;0.90;;
13014;SDS011;6573;57.696;11.950;2023-07-22T05:15:36;4.97;;;0.80;;
13014;SDS011;6573;57.696;11.950;2023-07-22T05:18:08;3.77;;;0.90;;
13014;SDS011;6573;57.696;11.950;2023-07-22T05:20:37;3.43;;;0.90;;
13014;SDS011;6573;57.696;11.950;2023-07-22T05:23:06;3.17;;;1.30;;
13014;SDS011;6573;57.696;11.950;2023-07-22T05:25:35;5.40;;;1.07;;
13014;SDS011;6573;57.696;11.950;2023-07-22T05:28:05;6.63;;;0.90;;
13014;SDS011;6573;57.696;11.950;2023-07-22T05:30:34;3.43;;;1.00;;
13014;SDS011;6573;57.696;11.950;2023-07-22T05:33:02;1.90;;;0.93;;
13014;SDS011;6573;57.696;11.950;2023-07-22T05:35:35;3.73;;;0.80;;
13014;SDS011;6573;57.696;11.950;2023-07-22T05:38:05;5.30;;;0.90;;
13014;SDS011;6573;57.696;11.950;2023-07-22T05:40:34;3.73;;;0.73;;
13014;SDS011;6573;57.696;11.950;2023-07-22T05:43:02;2.43;;;0.70;;
13014;SDS011;6573;57.696;11.950;2023-07-22T05:45:30;2.90;;;1.17;;
13014;SDS011;6573;57.696;11.950;2023-07-22T05:47:59;2.17;;;0.90;;
13014;SDS011;6573;57.696;11.950;2023-07-22T05:50:27;3.53;;;0.90;;
13014;SDS011;6573;57.696;11.950;2023-07-22T05:52:58;4.27;;;1.10;;
13014;SDS011;6573;57.696;11.950;2023-07-22T05:55:26;4.27;;;1.00;;
13014;SDS011;6573;57.696;11.950;2023-07-22T05:57:57;2.23;;;0.83;;
13014;SDS011;6573;57.696;11.950;2023-07-22T06:00:26;1.57;;;0.90;;
13014;SDS011;6573;57.696;11.950;2023-07-22T06:02:56;3.63;;;0.90;;
13014;SDS011;6573;57.696;11.950;2023-07-22T06:05:27;3.93;;;1.00;;
13014;SDS011;6573;57.696;11.950;2023-07-22T06:07:55;3.33;;;0.80;;
13014;SDS011;6573;57.696;11.950;2023-07-22T06:10:32;2.47;;;0.90;;
13014;SDS011;6573;57.696;11.950;2023-07-22T06:13:09;4.23;;;0.93;;
13014;SDS011;6573;57.696;11.950;2023-07-22T06:15:37;1.90;;;1.00;;
13014;SDS011;6573;57.696;11.950;2023-07-22T06:18:06;4.73;;;1.07;;
13014;SDS011;6573;57.696;11.950;2023-07-22T06:20:35;2.57;;;0.90;;
13014;SDS011;6573;57.696;11.950;2023-07-22T06:23:06;3.40;;;1.37;;
13014;SDS011;6573;57.696;11.950;2023-07-22T06:25:35;2.27;;;0.90;;
13014;SDS011;6573;57.696;11.950;2023-07-22T06:28:04;3.40;;;1.03;;
13014;SDS011;6573;57.696;11.950;2023-07-22T06:30:32;1.90;;;0.73;;
13014;SDS011;6573;57.696;11.950;2023-07-22T06:33:04;1.70;;;0.73;;
13014;SDS011;6573;57.696;11.950;2023-07-22T06:35:36;3.03;;;0.90;;
13014;SDS011;6573;57.696;11.950;2023-07-22T06:38:05;2.53;;;0.83;;
13014;SDS011;6573;57.696;11.950;2023-07-22T06:40:34;1.27;;;0.80;;
13014;SDS011;6573;57.696;11.950;2023-07-22T06:43:03;4.47;;;1.00;;
13014;SDS011;6573;57.696;11.950;2023-07-22T06:45:34;2.37;;;1.00;;
13014;SDS011;6573;57.696;11.950;2023-07-22T06:48:06;2.93;;;1.00;;
13014;SDS011;6573;57.696;11.950;2023-07-22T06:50:36;1.87;;;0.60;;
13014;SDS011;6573;57.696;11.950;2023-07-22T06:53:07;3.10;;;0.90;;
13014;SDS011;6573;57.696;11.950;2023-07-22T06:55:35;3.33;;;0.77;;
13014;SDS011;6573;57.696;11.950;2023-07-22T06:58:04;1.50;;;0.70;;
13014;SDS011;6573;57.696;11.950;2023-07-22T07:00:32;4.20;;;0.80;;
13014;SDS011;6573;57.696;11.950;2023-07-22T07:03:06;2.10;;;0.80;;
13014;SDS011;6573;57.696;11.950;2023-07-22T07:05:35;4.03;;;0.80;;
13014;SDS011;6573;57.696;11.950;2023-07-22T07:08:07;0.67;;;0.50;;
13014;SDS011;6573;57.696;11.950;2023-07-22T07:10:37;2.77;;;0.80;;
13014;SDS011;6573;57.696;11.950;2023-07-22T07:13:06;2.03;;;0.90;;
13014;SDS011;6573;57.696;11.950;2023-07-22T07:15:35;1.37;;;0.90;;
13014;SDS011;6573;57.696;11.950;2023-07-22T07:18:07;2.47;;;0.93;;
13014;SDS011;6573;57.696;11.950;2023-07-22T07:20:35;2.50;;;0.90;;
13014;SDS011;6573;57.696;11.950;2023-07-22T07:23:04;2.97;;;0.90;;
13014;SDS011;6573;57.696;11.950;2023-07-22T07:25:36;1.80;;;0.70;;
13014;SDS011;6573;57.696;11.950;2023-07-22T07:28:05;0.73;;;0.50;;
13014;SDS011;6573;57.696;11.950;2023-07-22T07:30:38;5.67;;;0.97;;
13014;SDS011;6573;57.696;11.950;2023-07-22T07:33:06;4.90;;;0.97;;
13014;SDS011;6573;57.696;11.950;2023-07-22T07:35:35;2.53;;;1.00;;
13014;SDS011;6573;57.696;11.950;2023-07-22T07:38:06;1.13;;;0.77;;
13014;SDS011;6573;57.696;11.950;2023-07-22T07:40:34;2.03;;;0.97;;
13014;SDS011;6573;57.696;11.950;2023-07-22T07:43:13;1.67;;;0.80;;
13014;SDS011;6573;57.696;11.950;2023-07-22T07:45:42;1.50;;;0.57;;
13014;SDS011;6573;57.696;11.950;2023-07-22T07:48:10;2.07;;;1.00;;
13014;SDS011;6573;57.696;11.950;2023-07-22T07:50:39;2.93;;;0.90;;
13014;SDS011;6573;57.696;11.950;2023-07-22T07:53:08;1.77;;;0.70;;
13014;SDS011;6573;57.696;11.950;2023-07-22T07:55:37;0.97;;;0.57;;
13014;SDS011;6573;57.696;11.950;2023-07-22T07:58:06;2.27;;;0.70;;
13014;SDS011;6573;57.696;11.950;2023-07-22T08:00:35;2.40;;;0.70;;
13014;SDS011;6573;57.696;11.950;2023-07-22T08:03:04;1.20;;;0.80;;
13014;SDS011;6573;57.696;11.950;2023-07-22T08:05:35;2.40;;;0.87;;
13014;SDS011;6573;57.696;11.950;2023-07-22T08:08:04;3.37;;;0.60;;
13014;SDS011;6573;57.696;11.950;2023-07-22T08:10:35;1.17;;;0.70;;
13014;SDS011;6573;57.696;11.950;2023-07-22T08:13:05;1.33;;;0.63;;
13014;SDS011;6573;57.696;11.950;2023-07-22T08:15:42;3.13;;;0.60;;
13014;SDS011;6573;57.696;11.950;2023-07-22T08:18:10;2.47;;;0.73;;
13014;SDS011;6573;57.696;11.950;2023-07-22T08:20:38;3.30;;;0.90;;
13014;SDS011;6573;57.696;11.950;2023-07-22T08:23:10;1.77;;;1.00;;
13014;SDS011;6573;57.696;11.950;2023-07-22T08:25:39;1.27;;;0.70;;
13014;SDS011;6573;57.696;11.950;2023-07-22T08:28:07;1.53;;;0.63;;
13014;SDS011;6573;57.696;11.950;2023-07-22T08:30:37;2.60;;;0.60;;
13014;SDS011;6573;57.696;11.950;2023-07-22T08:33:08;1.33;;;0.70;;
13014;SDS011;6573;57.696;11.950;2023-07-22T08:35:44;0.77;;;0.43;;
13014;SDS011;6573;57.696;11.950;2023-07-22T08:38:17;0.73;;;0.60;;
13014;SDS011;6573;57.696;11.950;2023-07-22T08:40:48;2.40;;;0.50;;
13014;SDS011;6573;57.696;11.950;2023-07-22T08:43:19;4.10;;;0.80;;
13014;SDS011;6573;57.696;11.950;2023-07-22T08:45:49;3.37;;;0.70;;
13014;SDS011;6573;57.696;11.950;2023-07-22T08:48:21;1.90;;;0.63;;
13014;SDS011;6573;57.696;11.950;2023-07-22T08:50:55;1.60;;;0.67;;
13014;SDS011;6573;57.696;11.950;2023-07-22T08:53:30;1.60;;;0.60;;
13014;SDS011;6573;57.696;11.950;2023-07-22T08:56:06;2.03;;;0.70;;
13014;SDS011;6573;57.696;11.950;2023-07-22T08:58:37;3.37;;;0.80;;
13014;SDS011;6573;57.696;11.950;2023-07-22T09:01:06;1.50;;;0.60;;
13014;SDS011;6573;57.696;11.950;2023-07-22T09:03:37;0.40;;;0.40;;
13014;SDS011;6573;57.696;11.950;2023-07-22T09:06:14;1.00;;;0.50;;
13014;SDS011;6573;57.696;11.950;2023-07-22T09:08:42;2.37;;;0.77;;
13014;SDS011;6573;57.696;11.950;2023-07-22T09:11:14;4.20;;;0.70;;
13014;SDS011;6573;57.696;11.950;2023-07-22T09:13:44;0.90;;;0.60;;
13014;SDS011;6573;57.696;11.950;2023-07-22T09:16:13;2.17;;;0.90;;
13014;SDS011;6573;57.696;11.950;2023-07-22T09:18:46;3.13;;;0.53;;
13014;SDS011;6573;57.696;11.950;2023-07-22T09:21:14;1.83;;;0.60;;
13014;SDS011;6573;57.696;11.950;2023-07-22T09:23:43;2.73;;;0.80;;
13014;SDS011;6573;57.696;11.950;2023-07-22T09:26:11;1.57;;;0.70;;
13014;SDS011;6573;57.696;11.950;2023-07-22T09:28:48;3.07;;;0.97;;
13014;SDS011;6573;57.696;11.950;2023-07-22T09:31:21;1.17;;;0.60;;
13014;SDS011;6573;57.696;11.950;2023-07-22T09:33:53;2.00;;;0.70;;
13014;SDS011;6573;57.696;11.950;2023-07-22T09:36:24;1.70;;;0.77;;
13014;SDS011;6573;57.696;11.950;2023-07-22T09:38:58;4.97;;;0.90;;
13014;SDS011;6573;57.696;11.950;2023-07-22T09:41:32;1.83;;;0.70;;
13014;SDS011;6573;57.696;11.950;2023-07-22T09:44:06;1.07;;;0.57;;
13014;SDS011;6573;57.696;11.950;2023-07-22T09:46:41;2.17;;;0.73;;
13014;SDS011;6573;57.696;11.950;2023-07-22T09:49:12;1.57;;;0.70;;
13014;SDS011;6573;57.696;11.950;2023-07-22T09:51:41;2.40;;;0.80;;
13014;SDS011;6573;57.696;11.950;2023-07-22T09:54:14;2.07;;;0.80;;
13014;SDS011;6573;57.696;11.950;2023-07-22T09:56:43;2.73;;;0.90;;
13014;SDS011;6573;57.696;11.950;2023-07-22T09:59:15;1.67;;;0.90;;
13014;SDS011;6573;57.696;11.950;2023-07-22T10:01:46;3.00;;;0.80;;
13014;SDS011;6573;57.696;11.950;2023-07-22T10:04:18;2.77;;;0.70;;
13014;SDS011;6573;57.696;11.950;2023-07-22T10:06:52;1.50;;;0.80;;
13014;SDS011;6573;57.696;11.950;2023-07-22T10:09:21;2.70;;;0.77;;
13014;SDS011;6573;57.696;11.950;2023-07-22T10:11:55;4.03;;;1.00;;
13014;SDS011;6573;57.696;11.950;2023-07-22T10:14:23;2.87;;;0.97;;
13014;SDS011;6573;57.696;11.950;2023-07-22T10:16:54;1.73;;;0.70;;
13014;SDS011;6573;57.696;11.950;2023-07-22T10:19:26;2.27;;;1.00;;
13014;SDS011;6573;57.696;11.950;2023-07-22T10:21:56;4.17;;;1.10;;
13014;SDS011;6573;57.696;11.950;2023-07-22T10:24:25;2.43;;;0.77;;
13014;SDS011;6573;57.696;11.950;2023-07-22T10:26:55;1.77;;;0.90;;
13014;SDS011;6573;57.696;11.950;2023-07-22T10:29:26;2.67;;;0.90;;
13014;SDS011;6573;57.696;11.950;2023-07-22T10:32:10;0.97;;;0.50;;
13014;SDS011;6573;57.696;11.950;2023-07-22T10:34:45;4.30;;;0.80;;
13014;SDS011;6573;57.696;11.950;2023-07-22T10:37:18;0.80;;;0.50;;
13014;SDS011;6573;57.696;11.950;2023-07-22T10:39:53;4.77;;;0.83;;
13014;SDS011;6573;57.696;11.950;2023-07-22T10:42:35;5.57;;;0.80;;
13014;SDS011;6573;57.696;11.950;2023-07-22T10:45:22;1.87;;;0.70;;
13014;SDS011;6573;57.696;11.950;2023-07-22T10:48:02;2.43;;;0.60;;
13014;SDS011;6573;57.696;11.950;2023-07-22T10:50:43;1.73;;;0.70;;
13014;SDS011;6573;57.696;11.950;2023-07-22T10:53:48;1.40;;;0.77;;
13014;SDS011;6573;57.696;11.950;2023-07-22T10:56:42;1.83;;;0.73;;
13014;SDS011;6573;57.696;11.950;2023-07-22T10:59:17;3.70;;;0.67;;
13014;SDS011;6573;57.696;11.950;2023-07-22T11:01:58;1.90;;;0.80;;
13014;SDS011;6573;57.696;11.950;2023-07-22T11:04:27;4.00;;;0.70;;
13014;SDS011;6573;57.696;11.950;2023-07-22T11:07:09;2.67;;;0.87;;
13014;SDS011;6573;57.696;11.950;2023-07-22T11:09:38;0.67;;;0.67;;
13014;SDS011;6573;57.696;11.950;2023-07-22T11:12:13;1.80;;;0.77;;
13014;SDS011;6573;57.696;11.950;2023-07-22T11:14:46;3.10;;;0.90;;
13014;SDS011;6573;57.696;11.950;2023-07-22T11:17:29;1.23;;;0.80;;
13014;SDS011;6573;57.696;11.950;2023-07-22T11:20:03;2.13;;;0.77;;
13014;SDS011;6573;57.696;11.950;2023-07-22T11:22:36;0.97;;;0.70;;
13014;SDS011;6573;57.696;11.950;2023-07-22T11:25:18;2.63;;;0.90;;
13014;SDS011;6573;57.696;11.950;2023-07-22T11:27:53;2.07;;;0.87;;
13014;SDS011;6573;57.696;11.950;2023-07-22T11:30:23;5.03;;;0.80;;
13014;SDS011;6573;57.696;11.950;2023-07-22T11:32:51;1.93;;;0.90;;
13014;SDS011;6573;57.696;11.950;2023-07-22T11:35:20;5.03;;;0.90;;
13014;SDS011;6573;57.696;11.950;2023-07-22T11:37:49;3.10;;;0.93;;
13014;SDS011;6573;57.696;11.950;2023-07-22T11:40:32;3.50;;;0.80;;
13014;SDS011;6573;57.696;11.950;2023-07-22T11:43:01;0.80;;;0.53;;
13014;SDS011;6573;57.696;11.950;2023-07-22T11:45:30;3.00;;;0.67;;
13014;SDS011;6573;57.696;11.950;2023-07-22T11:47:59;2.03;;;0.80;;
13014;SDS011;6573;57.696;11.950;2023-07-22T11:50:31;1.37;;;0.60;;
13014;SDS011;6573;57.696;11.950;2023-07-22T11:53:03;3.13;;;1.03;;
13014;SDS011;6573;57.696;11.950;2023-07-22T11:55:34;3.50;;;0.90;;
13014;SDS011;6573;57.696;11.950;2023-07-22T11:58:05;3.30;;;0.90;;
13014;SDS011;6573;57.696;11.950;2023-07-22T12:00:35;1.63;;;0.87;;
13014;SDS011;6573;57.696;11.950;2023-07-22T12:03:07;2.33;;;0.90;;
13014;SDS011;6573;57.696;11.950;2023-07-22T12:05:35;2.53;;;1.03;;
13014;SDS011;6573;57.696;11.950;2023-07-22T12:08:05;2.60;;;0.87;;
13014;SDS011;6573;57.696;11.950;2023-07-22T12:10:34;1.93;;;0.80;;
13014;SDS011;6573;57.696;11.950;2023-07-22T12:13:02;1.83;;;0.90;;
13014;SDS011;6573;57.696;11.950;2023-07-22T12:15:31;2.13;;;0.90;;
13014;SDS011;6573;57.696;11.950;2023-07-22T12:18:00;2.87;;;0.90;;
13014;SDS011;6573;57.696;11.950;2023-07-22T12:20:29;2.83;;;1.10;;
13014;SDS011;6573;57.696;11.950;2023-07-22T12:23:02;1.93;;;0.80;;
13014;SDS011;6573;57.696;11.950;2023-07-22T12:25:34;1.60;;;0.70;;
13014;SDS011;6573;57.696;11.950;2023-07-22T12:28:06;2.90;;;1.20;;
13014;SDS011;6573;57.696;11.950;2023-07-22T12:30:36;2.43;;;0.90;;
13014;SDS011;6573;57.696;11.950;2023-07-22T12:33:05;1.30;;;0.70;;
13014;SDS011;6573;57.696;11.950;2023-07-22T12:35:33;2.23;;;0.60;;
13014;SDS011;6573;57.696;11.950;2023-07-22T12:38:02;1.73;;;0.70;;
13014;SDS011;6573;57.696;11.950;2023-07-22T12:40:31;0.93;;;0.60;;
13014;SDS011;6573;57.696;11.950;2023-07-22T12:43:02;0.70;;;0.60;;
13014;SDS011;6573;57.696;11.950;2023-07-22T12:45:35;0.53;;;0.50;;
13014;SDS011;6573;57.696;11.950;2023-07-22T12:48:03;1.90;;;0.53;;
13014;SDS011;6573;57.696;11.950;2023-07-22T12:50:35;1.13;;;0.57;;
13014;SDS011;6573;57.696;11.950;2023-07-22T12:53:06;2.33;;;0.60;;
13014;SDS011;6573;57.696;11.950;2023-07-22T12:55:38;1.93;;;0.90;;
13014;SDS011;6573;57.696;11.950;2023-07-22T12:58:06;3.63;;;0.73;;
13014;SDS011;6573;57.696;11.950;2023-07-22T13:00:34;0.80;;;0.60;;
13014;SDS011;6573;57.696;11.950;2023-07-22T13:03:05;1.50;;;0.77;;
13014;SDS011;6573;57.696;11.950;2023-07-22T13:05:36;2.70;;;1.07;;
13014;SDS011;6573;57.696;11.950;2023-07-22T13:08:04;1.73;;;0.60;;
13014;SDS011;6573;57.696;11.950;2023-07-22T13:10:33;1.33;;;0.60;;
13014;SDS011;6573;57.696;11.950;2023-07-22T13:13:06;1.37;;;0.80;;
13014;SDS011;6573;57.696;11.950;2023-07-22T13:15:34;0.90;;;0.60;;
13014;SDS011;6573;57.696;11.950;2023-07-22T13:18:05;2.80;;;1.10;;
13014;SDS011;6573;57.696;11.950;2023-07-22T13:20:34;1.90;;;1.07;;
13014;SDS011;6573;57.696;11.950;2023-07-22T13:23:02;2.30;;;0.87;;
13014;SDS011;6573;57.696;11.950;2023-07-22T13:25:30;2.23;;;0.80;;
13014;SDS011;6573;57.696;11.950;2023-07-22T13:27:59;4.17;;;0.80;;
13014;SDS011;6573;57.696;11.950;2023-07-22T13:30:32;1.67;;;0.57;;
13014;SDS011;6573;57.696;11.950;2023-07-22T13:33:00;1.47;;;0.50;;
13014;SDS011;6573;57.696;11.950;2023-07-22T13:35:29;2.20;;;0.70;;
13014;SDS011;6573;57.696;11.950;2023-07-22T13:37:58;1.10;;;0.50;;
13014;SDS011;6573;57.696;11.950;2023-07-22T13:40:26;3.07;;;0.73;;
13014;SDS011;6573;57.696;11.950;2023-07-22T13:42:55;1.00;;;0.60;;
13014;SDS011;6573;57.696;11.950;2023-07-22T13:45:23;0.83;;;0.50;;
13014;SDS011;6573;57.696;11.950;2023-07-22T13:47:53;0.80;;;0.70;;
13014;SDS011;6573;57.696;11.950;2023-07-22T13:50:21;0.90;;;0.80;;
13014;SDS011;6573;57.696;11.950;2023-07-22T13:52:50;1.23;;;0.60;;
13014;SDS011;6573;57.696;11.950;2023-07-22T13:55:18;1.90;;;0.77;;
13014;SDS011;6573;57.696;11.950;2023-07-22T13:57:46;1.77;;;0.70;;
13014;SDS011;6573;57.696;11.950;2023-07-22T14:00:17;3.60;;;1.00;;
13014;SDS011;6573;57.696;11.950;2023-07-22T14:02:45;2.77;;;0.60;;
13014;SDS011;6573;57.696;11.950;2023-07-22T14:05:15;1.83;;;1.00;;
13014;SDS011;6573;57.696;11.950;2023-07-22T14:07:43;1.07;;;0.77;;
13014;SDS011;6573;57.696;11.950;2023-07-22T14:10:11;2.27;;;0.80;;
13014;SDS011;6573;57.696;11.950;2023-07-22T14:12:40;1.43;;;0.70;;
13014;SDS011;6573;57.696;11.950;2023-07-22T14:15:08;1.80;;;0.70;;
13014;SDS011;6573;57.696;11.950;2023-07-22T14:17:37;1.43;;;0.50;;
13014;SDS011;6573;57.696;11.950;2023-07-22T14:20:06;1.00;;;0.70;;
13014;SDS011;6573;57.696;11.950;2023-07-22T14:22:39;2.30;;;0.80;;
13014;SDS011;6573;57.696;11.950;2023-07-22T14:25:09;5.03;;;0.80;;
13014;SDS011;6573;57.696;11.950;2023-07-22T14:27:38;1.67;;;0.80;;
13014;SDS011;6573;57.696;11.950;2023-07-22T14:30:07;1.63;;;0.60;;
13014;SDS011;6573;57.696;11.950;2023-07-22T14:32:36;1.37;;;0.53;;
13014;SDS011;6573;57.696;11.950;2023-07-22T14:35:05;1.43;;;0.57;;
13014;SDS011;6573;57.696;11.950;2023-07-22T14:37:33;2.03;;;0.70;;
13014;SDS011;6573;57.696;11.950;2023-07-22T14:40:03;4.83;;;1.00;;
13014;SDS011;6573;57.696;11.950;2023-07-22T14:42:35;1.00;;;0.50;;
13014;SDS011;6573;57.696;11.950;2023-07-22T14:45:03;2.20;;;0.70;;
13014;SDS011;6573;57.696;11.950;2023-07-22T14:47:33;1.67;;;0.67;;
13014;SDS011;6573;57.696;11.950;2023-07-22T14:50:02;1.40;;;0.70;;
13014;SDS011;6573;57.696;11.950;2023-07-22T14:52:30;2.17;;;0.50;;
13014;SDS011;6573;57.696;11.950;2023-07-22T14:54:59;3.30;;;0.63;;
13014;SDS011;6573;57.696;11.950;2023-07-22T14:57:29;2.23;;;1.10;;
13014;SDS011;6573;57.696;11.950;2023-07-22T14:59:57;1.60;;;0.70;;
13014;SDS011;6573;57.696;11.950;2023-07-22T15:02:27;1.17;;;0.60;;
13014;SDS011;6573;57.696;11.950;2023-07-22T15:04:55;0.70;;;0.40;;
13014;SDS011;6573;57.696;11.950;2023-07-22T15:07:23;1.93;;;0.60;;